Terminal Aerodrome Forecast
Issued by NWS Wakefield, VA

Home | Current Version | Previous Version | Text Only | Print | Product List | Glossary On
Versions: 1 2 3 4 5 6 7 8 9 10 11 12 13 14 15 16 17 18 19 20 21
000
FTUS41 KAKQ 080559 CCA
TAFECG
TAF COR
KECG 080559Z 0806/0906 00000KT 5SM BR BKN200
      TEMPO 0806/0808 2SM MIFG
     FM081100 20003KT P6SM BKN050
     FM081500 25008KT P6SM OVC025
     FM081800 28008KT P6SM OVC040
     FM082300 31012KT P6SM BKN200=

USA.gov is the U.S. government's official web portal to all federal, state and local government web resources and services.